Lees Summit, Missouri
Current Conditions -  °F | °C
As of 4:53 PM on Wednesday 22 Oct 2014 (Local Time) from KLXT Reporting Station
Broken Clouds Broken Clouds  
Wind Chill: 21°   Ceiling: 4100
Heat Index: 21°   Visibility: 10mi
Dew Point: 12°   Wind: 10mph
Humidity: 55%   Direction: 130°SE
Pressure: 30.12"   Gusts: NA
Location:  38.908°N, 94.2968°W
Report Text: KLXT 222153Z AUTO 13009KT 10SM BKN041 21/12 A3012 RMK AO2 SLP196 T02110117
Loading
Personal Weather Stations






























Interactive Weather Map
Tropical Storm Tracking
New forecast layout! Learn more

10-Day Weather Forecast

Advertisements
Track Severe Weather on mobile